Sandy Hook, MS (39478)

7:46 AM CST on December 11, 2016 (GMT -0600)
Pearl River Hay Farm | | Change Station

Elev 256 ft 30.92 °N, 89.66 °W | Updated 16 seconds ago

Partly Cloudy
Partly Cloudy
41.7 °F
Feels Like 39 °F
N
4.0
Wind Variable Wind from ESE
Gusts 4.9 mph

Today
High -- | Low -- °F
--% Chance of Precip.
Yesterday
High -- | Low -- °F
Precip. -- in
Pressure 30.27 in
Visibility 10.0 miles
Clouds Overcast 6000 ft
Windchill 39 °F
Dew Point 25 °F
Humidity 51%
Rainfall 0.00 in
Snow Depth Not available.
6:47 AM 4:57 PM
Waxing Gibbous, 91% visible
METAR KBXA 111335Z AUTO 00000KT 10SM OVC060 03/M01 A3027 RMK AO2 T00261011
Pressure 30.27 in
Visibility 10.0 miles
Clouds Overcast 6000 ft
Windchill 39 °F
Dew Point 25 °F
Humidity 51%
Rainfall 0.00 in
Snow Depth Not available.
6:47 AM 4:57 PM
Waxing Gibbous, 91% visible
METAR KBXA 111335Z AUTO 00000KT 10SM OVC060 03/M01 A3027 RMK AO2 T00261011

10-Day Weather Forecast

Almanac

Astronomy

Dec. 11, 2016 Rise Set
Actual Time
Civil Twilight
Nautical Twilight
Astronomical Twilight
Moon
Length of Visible Light
Length of Day
Tomorrow will be .
, % of the Moon is Illuminated

Today's Extremes

State Highs State Lows

Community

WunderPhotos

Upload Photos

1,956,708 photos uploaded!

WunderBlog® & News

Nearby

Air Quality

  Air Quality AQ Index Pollutant
Not available.

Snow Depth

Station Depth Elevation

Earthquake Activity

City Distance Mag. Time & Date
Minimum magnitude displayed is 2.5.

Coastal Water Temperatures

Place Temperature

Stations

Nearby Weather Stations

Station Location Temp. Windchill Dew Point Humidity Wind Precip. Elev Updated Type
                   

Watches & Warnings

There are currently no watches in effect.